createdAt,value
2023-05-05T00:01:08.163Z,3.10
2023-05-05T00:03:35.479Z,2.77
2023-05-05T00:06:02.919Z,2.93
2023-05-05T00:08:29.644Z,3.02
2023-05-05T00:10:56.346Z,2.71
2023-05-05T00:13:23.465Z,2.69
2023-05-05T00:15:51.832Z,2.65
2023-05-05T00:18:19.248Z,2.53
2023-05-05T00:20:46.533Z,2.61
2023-05-05T00:23:18.757Z,2.91
2023-05-05T00:25:45.528Z,2.47
2023-05-05T00:28:12.576Z,2.72
2023-05-05T00:31:02.019Z,2.73
2023-05-05T00:33:28.877Z,2.79
2023-05-05T00:35:55.627Z,2.47
2023-05-05T00:38:22.878Z,3.48
2023-05-05T00:40:49.613Z,2.60
2023-05-05T00:43:16.891Z,2.63
2023-05-05T00:45:43.854Z,2.72
2023-05-05T00:48:10.721Z,2.64
2023-05-05T00:50:37.603Z,2.84
2023-05-05T00:53:06.785Z,2.66
2023-05-05T00:55:34.107Z,2.80
2023-05-05T00:58:01.358Z,2.80
2023-05-05T01:00:28.540Z,2.96
2023-05-05T01:03:30.295Z,2.85
2023-05-05T01:06:12.509Z,3.07
2023-05-05T01:09:04.626Z,2.88
2023-05-05T01:12:02.784Z,3.00
2023-05-05T01:14:40.504Z,2.86
2023-05-05T01:17:16.802Z,3.07
2023-05-05T01:20:09.866Z,2.81
2023-05-05T01:22:39.602Z,2.82
2023-05-05T01:25:25.082Z,2.82
2023-05-05T01:28:18.339Z,2.83
2023-05-05T01:31:20.005Z,2.82
2023-05-05T01:33:49.316Z,2.96
2023-05-05T01:36:23.825Z,2.74
2023-05-05T01:38:53.749Z,2.84
2023-05-05T01:41:24.675Z,2.73
2023-05-05T01:43:54.463Z,2.62
2023-05-05T01:46:21.864Z,2.83
2023-05-05T01:48:48.860Z,2.90
2023-05-05T01:51:16.079Z,2.68
2023-05-05T01:53:44.340Z,2.83
2023-05-05T01:56:11.338Z,2.81
2023-05-05T01:58:38.183Z,2.79
2023-05-05T02:01:05.227Z,2.92
2023-05-05T02:03:32.577Z,2.93
2023-05-05T02:05:59.667Z,2.92
2023-05-05T02:08:26.888Z,3.10
2023-05-05T02:10:54.219Z,2.94
2023-05-05T02:13:21.803Z,2.82
2023-05-05T02:19:18.247Z,2.76
2023-05-05T02:21:45.364Z,3.11
2023-05-05T02:24:12.430Z,3.15
2023-05-05T02:26:39.891Z,3.00
2023-05-05T02:29:20.130Z,2.98
2023-05-05T02:31:49.930Z,3.11
2023-05-05T02:34:18.510Z,3.18
2023-05-05T02:36:45.481Z,3.02
2023-05-05T02:39:27.539Z,3.33
2023-05-05T02:41:54.766Z,3.89
2023-05-05T02:44:23.162Z,3.61
2023-05-05T02:46:49.945Z,3.42
2023-05-05T02:49:17.234Z,3.34
2023-05-05T02:51:44.324Z,3.51
2023-05-05T02:54:11.348Z,3.81
2023-05-05T02:56:48.872Z,3.49
2023-05-05T03:03:14.125Z,3.54
2023-05-05T03:05:47.388Z,3.50
2023-05-05T03:08:18.190Z,3.20
2023-05-05T03:14:19.311Z,3.34
2023-05-05T03:16:46.399Z,3.27
2023-05-05T03:19:14.789Z,3.48
2023-05-05T03:21:42.773Z,3.59
2023-05-05T03:24:13.777Z,3.52
2023-05-05T03:26:41.041Z,3.40
2023-05-05T03:29:07.734Z,3.38
2023-05-05T03:31:34.831Z,3.62
2023-05-05T03:34:01.924Z,3.42
2023-05-05T03:36:29.479Z,3.87
2023-05-05T03:38:57.345Z,3.74
2023-05-05T03:41:24.078Z,3.41
2023-05-05T03:43:51.606Z,3.21
2023-05-05T03:46:21.341Z,3.54
2023-05-05T03:48:48.450Z,3.39
2023-05-05T03:51:15.873Z,3.69
2023-05-05T03:53:42.585Z,3.87
2023-05-05T03:56:09.678Z,3.80
2023-05-05T03:58:36.705Z,3.60
2023-05-05T04:01:03.584Z,3.33
2023-05-05T04:03:31.001Z,3.78
2023-05-05T04:05:58.904Z,4.02
2023-05-05T04:08:25.593Z,3.65
2023-05-05T04:10:52.814Z,3.56
2023-05-05T04:13:19.560Z,3.98
2023-05-05T04:19:40.925Z,3.46
2023-05-05T04:22:08.430Z,3.64
2023-05-05T04:24:35.576Z,3.55
2023-05-05T04:27:03.192Z,3.58
2023-05-05T04:29:30.282Z,3.65
2023-05-05T04:31:57.047Z,3.75
2023-05-05T04:34:24.142Z,3.85
2023-05-05T04:36:51.325Z,3.54
2023-05-05T04:39:18.500Z,3.42
2023-05-05T04:41:45.331Z,3.50
2023-05-05T04:44:12.308Z,3.39
2023-05-05T04:46:39.198Z,3.40
2023-05-05T04:49:05.908Z,3.43
2023-05-05T04:51:32.861Z,3.49
2023-05-05T04:53:59.724Z,3.31
2023-05-05T04:56:27.421Z,3.44
2023-05-05T04:58:55.726Z,3.40
2023-05-05T05:01:22.646Z,3.51
2023-05-05T05:03:49.818Z,3.59
2023-05-05T05:06:16.737Z,3.37
2023-05-05T05:08:44.856Z,3.55
2023-05-05T05:11:11.909Z,3.38
2023-05-05T05:13:38.646Z,3.15
2023-05-05T05:16:07.415Z,3.24
2023-05-05T05:18:34.234Z,3.40
2023-05-05T05:21:01.536Z,3.24
2023-05-05T05:23:29.606Z,3.43
2023-05-05T05:25:56.804Z,3.38
2023-05-05T05:28:23.885Z,3.22
2023-05-05T05:30:51.251Z,3.42
2023-05-05T05:33:17.915Z,3.48
2023-05-05T05:35:45.010Z,3.22
2023-05-05T05:38:12.212Z,3.53
2023-05-05T05:41:10.258Z,3.10
2023-05-05T05:43:37.367Z,3.22
2023-05-05T05:46:08.271Z,3.84
2023-05-05T05:48:35.942Z,3.37
2023-05-05T05:51:03.914Z,3.09
2023-05-05T05:53:30.897Z,3.19
2023-05-05T05:55:58.422Z,3.18
2023-05-05T05:58:27.848Z,3.14
2023-05-05T06:00:54.663Z,3.00
2023-05-05T06:03:22.005Z,3.09
2023-05-05T06:05:49.138Z,2.72
2023-05-05T06:08:16.601Z,2.96
2023-05-05T06:10:43.897Z,3.27
2023-05-05T06:13:10.710Z,3.35
2023-05-05T06:15:37.499Z,3.34
2023-05-05T06:18:05.501Z,3.28
2023-05-05T06:20:35.085Z,2.97
2023-05-05T06:23:02.805Z,3.20
2023-05-05T06:25:29.956Z,2.94
2023-05-05T06:27:59.245Z,3.40
2023-05-05T06:30:27.253Z,3.33
2023-05-05T06:32:54.463Z,3.02
2023-05-05T06:35:21.443Z,2.98
2023-05-05T06:37:48.618Z,3.04
2023-05-05T06:40:16.515Z,3.07
2023-05-05T06:42:54.244Z,3.13
2023-05-05T06:45:26.715Z,3.16
2023-05-05T06:47:53.543Z,3.34
2023-05-05T06:50:20.333Z,3.37
2023-05-05T06:52:48.625Z,3.49
2023-05-05T06:55:18.201Z,3.42
2023-05-05T06:57:45.879Z,3.38
2023-05-05T07:00:23.442Z,3.87
2023-05-05T07:02:51.002Z,3.64
2023-05-05T07:05:18.601Z,3.42
2023-05-05T07:07:55.718Z,3.50
2023-05-05T07:10:23.278Z,3.64
2023-05-05T07:12:50.131Z,3.57
2023-05-05T07:15:27.430Z,3.58
2023-05-05T07:17:56.376Z,3.69
2023-05-05T07:20:24.686Z,3.70
2023-05-05T07:22:52.367Z,3.69
2023-05-05T07:25:20.155Z,3.77
2023-05-05T07:27:47.237Z,3.41
2023-05-05T07:30:18.131Z,3.58
2023-05-05T07:32:49.027Z,3.53
2023-05-05T07:35:16.571Z,3.63
2023-05-05T07:37:45.712Z,3.45
2023-05-05T07:40:12.786Z,3.70
2023-05-05T07:42:42.201Z,3.35
2023-05-05T07:45:10.865Z,3.41
2023-05-05T07:47:39.252Z,3.51
2023-05-05T07:50:08.852Z,3.49
2023-05-05T07:52:46.524Z,3.44
2023-05-05T07:55:15.850Z,3.49
2023-05-05T07:57:42.609Z,3.29
2023-05-05T08:00:11.135Z,3.54
2023-05-05T08:02:38.609Z,3.18
2023-05-05T08:05:07.009Z,3.22
2023-05-05T08:07:35.064Z,2.81
2023-05-05T08:10:02.938Z,2.86
2023-05-05T08:12:30.108Z,2.55
2023-05-05T08:14:58.064Z,2.63
2023-05-05T08:17:25.140Z,2.62
2023-05-05T08:20:02.188Z,2.47
2023-05-05T08:22:29.723Z,2.57
2023-05-05T08:24:57.981Z,2.53
2023-05-05T08:27:25.058Z,2.66
2023-05-05T08:29:52.089Z,2.54
2023-05-05T08:32:21.577Z,2.32
2023-05-05T08:34:48.894Z,2.39
2023-05-05T08:37:15.993Z,2.66
2023-05-05T08:39:44.228Z,2.49
2023-05-05T08:42:12.324Z,2.73
2023-05-05T08:44:40.965Z,2.63
2023-05-05T08:47:08.678Z,2.65
2023-05-05T08:49:40.580Z,2.69
2023-05-05T08:52:07.345Z,2.79
2023-05-05T08:54:36.125Z,2.61
2023-05-05T08:57:03.241Z,2.58
2023-05-05T08:59:30.550Z,2.95
2023-05-05T09:02:01.519Z,2.89
2023-05-05T09:04:28.652Z,2.27
2023-05-05T09:06:58.272Z,2.44
2023-05-05T09:09:27.877Z,2.30
2023-05-05T09:11:55.740Z,2.35
2023-05-05T09:14:23.196Z,2.40
2023-05-05T09:16:50.114Z,2.71
2023-05-05T09:19:16.854Z,3.06
2023-05-05T09:21:47.489Z,3.04
2023-05-05T09:24:14.494Z,2.78
2023-05-05T09:26:42.764Z,2.43
2023-05-05T09:29:09.580Z,2.20
2023-05-05T09:31:36.749Z,2.44
2023-05-05T09:34:16.514Z,2.36
2023-05-05T09:36:48.183Z,2.60
2023-05-05T09:39:34.810Z,2.54
2023-05-05T09:42:01.599Z,2.40
2023-05-05T09:44:39.207Z,2.54
2023-05-05T09:47:18.106Z,2.37
2023-05-05T09:49:59.039Z,2.53
2023-05-05T09:52:26.318Z,2.36
2023-05-05T09:54:58.960Z,2.29
2023-05-05T09:57:30.752Z,2.01
2023-05-05T10:00:04.070Z,2.09
2023-05-05T10:02:35.550Z,2.08
2023-05-05T10:05:05.328Z,1.96
2023-05-05T10:07:32.143Z,2.02
2023-05-05T10:09:58.907Z,1.97
2023-05-05T10:12:26.182Z,2.04
2023-05-05T10:14:52.995Z,2.00
2023-05-05T10:17:20.048Z,1.80
2023-05-05T10:19:47.079Z,2.12
2023-05-05T10:22:14.161Z,2.03
2023-05-05T10:24:44.646Z,1.94
2023-05-05T10:27:19.028Z,1.85
2023-05-05T10:30:03.204Z,2.01
2023-05-05T10:33:04.051Z,2.28
2023-05-05T10:35:35.624Z,2.10
2023-05-05T10:38:02.680Z,2.24
2023-05-05T10:40:29.696Z,2.16
2023-05-05T10:42:56.929Z,2.19
2023-05-05T10:45:23.685Z,2.10
2023-05-05T10:47:50.801Z,2.05
2023-05-05T10:50:31.113Z,2.10
2023-05-05T10:53:13.237Z,2.01
2023-05-05T10:55:44.610Z,2.09
2023-05-05T10:58:51.208Z,2.14
2023-05-05T11:01:31.856Z,1.84
2023-05-05T11:04:21.827Z,2.05
2023-05-05T11:07:27.172Z,1.84
2023-05-05T11:09:59.944Z,1.89
2023-05-05T11:12:27.379Z,1.87
2023-05-05T11:15:28.802Z,1.91
2023-05-05T11:17:58.017Z,2.08
2023-05-05T11:20:44.428Z,1.93
2023-05-05T11:23:11.417Z,2.01
2023-05-05T11:25:47.942Z,1.88
2023-05-05T11:28:18.895Z,1.97
2023-05-05T11:30:55.853Z,1.71
2023-05-05T11:33:32.140Z,1.65
2023-05-05T11:36:05.958Z,2.07
2023-05-05T11:38:54.876Z,2.05
2023-05-05T11:41:33.553Z,2.15
2023-05-05T11:44:29.475Z,1.97
2023-05-05T11:47:00.670Z,2.08
2023-05-05T11:49:41.356Z,2.38
2023-05-05T11:52:11.995Z,2.47
2023-05-05T11:54:40.990Z,2.38
2023-05-05T11:57:08.769Z,2.85
2023-05-05T11:59:36.719Z,3.35
2023-05-05T12:02:04.703Z,4.36
2023-05-05T12:04:31.512Z,4.67
2023-05-05T12:06:59.927Z,4.63
2023-05-05T12:09:26.957Z,4.34
2023-05-05T12:11:58.327Z,4.38
2023-05-05T12:14:25.625Z,4.16
2023-05-05T12:16:58.409Z,4.03
2023-05-05T12:19:25.915Z,2.84
2023-05-05T12:21:52.898Z,2.87
2023-05-05T12:24:20.010Z,2.34
2023-05-05T12:26:47.193Z,2.37
2023-05-05T12:29:23.369Z,2.49
2023-05-05T12:31:50.206Z,2.18
2023-05-05T12:34:17.566Z,2.18
2023-05-05T12:36:44.824Z,2.67
2023-05-05T12:39:12.850Z,2.32
2023-05-05T12:41:42.419Z,2.52
2023-05-05T12:44:09.678Z,2.42
2023-05-05T12:46:46.369Z,2.57
2023-05-05T12:49:16.557Z,2.25
2023-05-05T12:51:58.434Z,2.28
2023-05-05T12:54:25.240Z,2.39
2023-05-05T12:56:52.486Z,2.40
2023-05-05T12:59:25.441Z,2.50
2023-05-05T13:01:53.554Z,2.51
2023-05-05T13:04:22.315Z,2.37
2023-05-05T13:06:52.559Z,2.25
2023-05-05T13:09:27.946Z,2.59
2023-05-05T13:11:55.145Z,2.26
2023-05-05T13:14:22.411Z,2.17
2023-05-05T13:16:49.217Z,2.41
2023-05-05T13:19:16.018Z,2.48
2023-05-05T13:21:44.181Z,2.30
2023-05-05T13:24:21.183Z,2.33
2023-05-05T13:26:58.235Z,2.34
2023-05-05T13:29:55.589Z,2.30
2023-05-05T13:32:22.741Z,2.23
2023-05-05T13:34:49.589Z,2.22
2023-05-05T13:37:16.545Z,2.20
2023-05-05T13:39:44.444Z,2.31
2023-05-05T13:42:11.964Z,2.34
2023-05-05T13:44:39.204Z,2.25
2023-05-05T13:47:08.396Z,2.09
2023-05-05T13:49:59.216Z,2.19
2023-05-05T13:52:26.385Z,2.25
2023-05-05T13:54:54.000Z,2.22
2023-05-05T13:57:23.499Z,2.03
2023-05-05T13:59:51.623Z,1.92
2023-05-05T14:02:19.375Z,2.40
2023-05-05T14:04:46.396Z,2.23
2023-05-05T14:07:14.918Z,1.95
2023-05-05T14:09:43.055Z,2.30
2023-05-05T14:12:10.082Z,2.10
2023-05-05T14:14:37.287Z,1.91
2023-05-05T14:17:05.599Z,1.99
2023-05-05T14:19:33.100Z,2.10
2023-05-05T14:22:00.188Z,2.02
2023-05-05T14:24:27.420Z,2.24
2023-05-05T14:26:57.193Z,2.16
2023-05-05T14:29:26.504Z,1.97
2023-05-05T14:31:56.120Z,2.16
2023-05-05T14:34:29.506Z,2.15
2023-05-05T14:36:56.378Z,2.09
2023-05-05T14:39:26.203Z,2.16
2023-05-05T14:41:53.591Z,1.93
2023-05-05T14:44:20.637Z,1.97
2023-05-05T14:46:49.005Z,1.80
2023-05-05T14:49:17.507Z,1.92
2023-05-05T14:51:47.167Z,1.77
2023-05-05T14:54:27.555Z,1.96
2023-05-05T14:56:56.065Z,1.89
2023-05-05T14:59:39.362Z,1.88
2023-05-05T15:02:10.486Z,1.94
2023-05-05T15:04:37.522Z,1.87
2023-05-05T15:07:05.213Z,1.93
2023-05-05T15:09:32.294Z,1.84
2023-05-05T15:11:59.608Z,1.82
2023-05-05T15:14:26.798Z,2.11
2023-05-05T15:16:55.108Z,1.94
2023-05-05T15:19:22.809Z,1.87
2023-05-05T15:21:50.814Z,1.94
2023-05-05T15:24:17.978Z,1.93
2023-05-05T15:26:44.739Z,2.08
2023-05-05T15:29:12.557Z,1.97
2023-05-05T15:31:42.448Z,2.04
2023-05-05T15:34:10.551Z,1.89
2023-05-05T15:36:37.692Z,1.92
2023-05-05T15:39:04.628Z,2.07
2023-05-05T15:41:33.613Z,2.01
2023-05-05T15:44:02.156Z,2.17
2023-05-05T15:46:34.458Z,2.64
2023-05-05T15:49:01.598Z,2.17
2023-05-05T15:51:28.883Z,1.96
2023-05-05T15:53:56.567Z,2.03
2023-05-05T15:56:23.717Z,2.08
2023-05-05T15:58:51.634Z,2.30
2023-05-05T16:01:22.307Z,2.11
2023-05-05T16:03:49.117Z,2.11
2023-05-05T16:06:18.713Z,2.10
2023-05-05T16:08:45.816Z,2.31
2023-05-05T16:11:15.581Z,2.17
2023-05-05T16:13:42.564Z,2.16
2023-05-05T16:16:09.339Z,2.19
2023-05-05T16:18:36.058Z,2.17
2023-05-05T16:21:35.850Z,2.09
2023-05-05T16:24:22.112Z,2.22
2023-05-05T16:26:49.309Z,2.09
2023-05-05T16:29:17.834Z,2.16
2023-05-05T16:31:45.068Z,2.16
2023-05-05T16:34:13.325Z,2.23
2023-05-05T16:36:41.586Z,2.46
2023-05-05T16:39:12.596Z,2.62
2023-05-05T16:41:41.406Z,2.37
2023-05-05T16:44:08.378Z,2.17
2023-05-05T16:46:35.342Z,2.50
2023-05-05T16:49:03.207Z,2.81
2023-05-05T16:51:30.385Z,2.62
2023-05-05T16:53:57.447Z,2.52
2023-05-05T16:56:24.678Z,2.53
2023-05-05T16:58:51.775Z,2.48
2023-05-05T17:01:19.846Z,2.53
2023-05-05T17:03:47.102Z,2.39
2023-05-05T17:06:14.358Z,2.59
2023-05-05T17:08:41.933Z,2.58
2023-05-05T17:11:10.974Z,2.75
2023-05-05T17:13:38.778Z,2.59
2023-05-05T17:16:05.743Z,2.34
2023-05-05T17:18:33.236Z,2.23
2023-05-05T17:21:00.056Z,2.47
2023-05-05T17:23:27.308Z,2.26
2023-05-05T17:25:57.079Z,2.40
2023-05-05T17:28:23.935Z,2.33
2023-05-05T17:30:51.134Z,2.37
2023-05-05T17:33:17.904Z,2.32
2023-05-05T17:35:46.188Z,2.39
2023-05-05T17:38:13.090Z,2.61
2023-05-05T17:40:42.803Z,2.73
2023-05-05T17:43:10.733Z,2.61
2023-05-05T17:45:37.485Z,2.64
2023-05-05T17:48:04.520Z,2.72
2023-05-05T17:50:31.323Z,2.63
2023-05-05T17:52:58.109Z,2.64
2023-05-05T17:55:25.714Z,3.32
2023-05-05T17:57:53.039Z,2.86
2023-05-05T18:00:23.874Z,2.79
2023-05-05T18:02:50.873Z,2.97
2023-05-05T18:05:18.325Z,2.63
2023-05-05T18:07:45.166Z,2.54
2023-05-05T18:10:12.306Z,2.49
2023-05-05T18:12:40.893Z,2.63
2023-05-05T18:15:08.186Z,2.48
2023-05-05T18:17:35.757Z,2.62
2023-05-05T18:20:02.773Z,2.60
2023-05-05T18:22:29.591Z,2.65
2023-05-05T18:24:56.309Z,2.59
2023-05-05T18:27:25.821Z,2.53
2023-05-05T18:29:52.650Z,2.62
2023-05-05T18:32:19.511Z,2.57
2023-05-05T18:34:46.698Z,2.47
2023-05-05T18:37:13.395Z,2.62
2023-05-05T18:39:44.139Z,2.42
2023-05-05T18:42:13.070Z,2.55
2023-05-05T18:44:39.895Z,2.68
2023-05-05T18:47:08.262Z,2.65
2023-05-05T18:49:35.282Z,2.78
2023-05-05T18:52:02.474Z,2.82
2023-05-05T18:54:29.624Z,2.93
2023-05-05T18:56:58.636Z,2.84
2023-05-05T18:59:25.882Z,2.71
2023-05-05T19:01:52.730Z,2.80
2023-05-05T19:04:30.688Z,2.63
2023-05-05T19:06:58.635Z,2.74
2023-05-05T19:09:26.172Z,2.75
2023-05-05T19:11:55.767Z,2.49
2023-05-05T19:14:22.936Z,2.67
2023-05-05T19:16:51.077Z,2.42
2023-05-05T19:19:18.107Z,2.51
2023-05-05T19:21:45.362Z,2.86
2023-05-05T19:24:12.307Z,3.40
2023-05-05T19:30:47.559Z,3.13
2023-05-05T19:33:17.646Z,3.08
2023-05-05T19:35:47.166Z,3.46
2023-05-05T19:38:14.093Z,3.27
2023-05-05T19:40:42.051Z,3.36
2023-05-05T19:43:09.529Z,3.51
2023-05-05T19:45:42.524Z,3.86
2023-05-05T19:48:10.357Z,3.73
2023-05-05T19:50:38.455Z,3.28
2023-05-05T19:53:05.577Z,3.27
2023-05-05T19:55:32.611Z,3.54
2023-05-05T19:58:02.577Z,3.59
2023-05-05T20:00:29.747Z,3.95
2023-05-05T20:02:57.053Z,4.12
2023-05-05T20:05:24.213Z,4.41
2023-05-05T20:07:54.019Z,4.26
2023-05-05T20:10:22.880Z,4.10
2023-05-05T20:12:49.718Z,3.82
2023-05-05T20:15:19.260Z,3.68
2023-05-05T20:17:47.248Z,3.20
2023-05-05T20:20:16.128Z,3.21
2023-05-05T20:22:43.709Z,3.67
2023-05-05T20:25:13.500Z,3.39
2023-05-05T20:27:40.658Z,3.17
2023-05-05T20:30:11.839Z,3.63
2023-05-05T20:32:39.657Z,3.50
2023-05-05T20:35:08.661Z,3.31
2023-05-05T20:37:36.409Z,3.38
2023-05-05T20:40:03.879Z,3.39
2023-05-05T20:42:31.988Z,3.53
2023-05-05T20:45:00.524Z,3.52
2023-05-05T20:47:27.851Z,3.45
2023-05-05T20:49:54.597Z,3.45
2023-05-05T20:52:21.421Z,3.36
2023-05-05T20:54:48.726Z,3.44
2023-05-05T20:57:15.756Z,3.28
2023-05-05T20:59:44.059Z,3.21
2023-05-05T21:02:12.174Z,3.51
2023-05-05T21:04:39.316Z,3.72
2023-05-05T21:07:07.040Z,3.72
2023-05-05T21:09:58.352Z,3.97
2023-05-05T21:12:45.204Z,4.14
2023-05-05T21:15:12.251Z,4.19
2023-05-05T21:17:39.201Z,4.42
2023-05-05T21:20:09.361Z,4.14
2023-05-05T21:22:36.301Z,4.45
2023-05-05T21:25:13.855Z,3.98
2023-05-05T21:27:40.518Z,4.20
2023-05-05T21:30:10.811Z,4.24
2023-05-05T21:32:57.054Z,4.33
2023-05-05T21:35:43.059Z,4.44
2023-05-05T21:38:28.767Z,4.51
2023-05-05T21:40:59.740Z,4.49
2023-05-05T21:43:45.366Z,4.30
2023-05-05T21:46:30.811Z,4.40
2023-05-05T21:49:16.329Z,4.36
2023-05-05T21:52:02.390Z,4.06
2023-05-05T21:54:49.339Z,4.54
2023-05-05T21:57:35.489Z,4.39
2023-05-05T22:00:02.766Z,4.36
2023-05-05T22:02:29.992Z,4.28
2023-05-05T22:04:56.832Z,4.38
2023-05-05T22:07:26.441Z,4.47
2023-05-05T22:09:54.463Z,4.50
2023-05-05T22:12:21.957Z,4.41
2023-05-05T22:14:48.821Z,4.13
2023-05-05T22:17:15.506Z,4.01
2023-05-05T22:19:43.466Z,4.14
2023-05-05T22:22:10.625Z,4.18
2023-05-05T22:24:39.099Z,4.20
2023-05-05T22:27:06.234Z,4.20
2023-05-05T22:29:34.353Z,4.26
2023-05-05T22:32:01.425Z,4.40
2023-05-05T22:34:28.117Z,4.31
2023-05-05T22:36:54.819Z,4.07
2023-05-05T22:39:22.065Z,3.82
2023-05-05T22:41:48.879Z,3.86
2023-05-05T22:44:16.032Z,3.70
2023-05-05T22:46:42.868Z,3.87
2023-05-05T22:49:09.630Z,3.91
2023-05-05T22:51:37.101Z,4.11
2023-05-05T22:54:04.715Z,4.09
2023-05-05T22:56:31.880Z,4.15
2023-05-05T22:58:58.986Z,4.14
2023-05-05T23:01:26.119Z,4.13
2023-05-05T23:03:52.951Z,3.91
2023-05-05T23:06:21.672Z,3.68
2023-05-05T23:08:48.685Z,3.78
2023-05-05T23:11:15.481Z,3.94
2023-05-05T23:13:42.901Z,3.70
2023-05-05T23:16:32.113Z,3.73
2023-05-05T23:18:59.246Z,3.63
2023-05-05T23:21:25.937Z,3.82
2023-05-05T23:23:53.057Z,3.65
2023-05-05T23:26:19.807Z,3.62
2023-05-05T23:28:46.737Z,3.68
2023-05-05T23:31:13.955Z,3.78
2023-05-05T23:33:42.728Z,3.86
2023-05-05T23:36:10.031Z,3.86
2023-05-05T23:38:37.936Z,3.90
2023-05-05T23:41:05.166Z,3.82
2023-05-05T23:43:32.351Z,4.12
2023-05-05T23:45:59.965Z,3.65
2023-05-05T23:48:26.741Z,3.90
2023-05-05T23:50:53.846Z,4.44
2023-05-05T23:53:20.529Z,4.53
2023-05-05T23:55:47.798Z,4.30
2023-05-05T23:58:14.487Z,4.17
